Terminal Aerodrome Forecast
Issued by NWS

Home | Current Version | Previous Version | Text Only | Print | Product List | Glossary On
Versions: 1 2 3 4 5 6 7 8 9 10 11 12
422
FTUS42 KTBW 200523
TAFPIE
TAF
KPIE 200523Z 2006/2106 10004KT P6SM FEW020 SCT250
     FM201800 04006KT P6SM VCTS SCT025CB BKN200
     FM202100 08007KT P6SM VCTS SCT035CB BKN150
     FM210200 12004KT P6SM BKN250=

USA.gov is the U.S. government's official web portal to all federal, state and local government web resources and services.